createdAt,value
2022-09-27T00:00:50.609Z,13.02
2022-09-27T00:03:18.667Z,7.57
2022-09-27T00:05:48.189Z,6.03
2022-09-27T00:08:16.247Z,9.15
2022-09-27T00:10:44.302Z,11.30
2022-09-27T00:13:12.346Z,8.40
2022-09-27T00:15:40.409Z,7.13
2022-09-27T00:18:10.022Z,9.90
2022-09-27T00:20:38.221Z,8.30
2022-09-27T00:23:07.691Z,12.50
2022-09-27T00:25:35.739Z,7.78
2022-09-27T00:28:03.782Z,14.20
2022-09-27T00:30:31.881Z,12.73
2022-09-27T00:32:59.919Z,9.57
2022-09-27T00:35:28.074Z,15.63
2022-09-27T00:37:56.141Z,14.20
2022-09-27T00:40:25.659Z,17.10
2022-09-27T00:42:53.743Z,9.65
2022-09-27T00:45:21.994Z,13.13
2022-09-27T00:47:56.386Z,18.67
2022-09-27T00:50:31.001Z,12.60
2022-09-27T00:53:11.114Z,13.57
2022-09-27T00:55:44.869Z,16.02
2022-09-27T00:58:16.298Z,15.13
2022-09-27T01:00:49.762Z,17.90
2022-09-27T01:03:31.989Z,15.90
2022-09-27T01:06:01.154Z,12.60
2022-09-27T01:08:29.409Z,13.90
2022-09-27T01:11:15.746Z,16.05
2022-09-27T01:13:56.489Z,17.35
2022-09-27T01:16:32.974Z,13.95
2022-09-27T01:19:17.961Z,23.40
2022-09-27T01:21:57.215Z,11.48
2022-09-27T01:25:01.815Z,10.88
2022-09-27T01:28:03.549Z,13.57
2022-09-27T01:30:43.283Z,7.93
2022-09-27T01:33:27.183Z,8.60
2022-09-27T01:36:09.165Z,10.40
2022-09-27T01:38:46.902Z,2.78
2022-09-27T01:41:24.818Z,14.07
2022-09-27T01:44:21.179Z,8.23
2022-09-27T01:46:57.935Z,15.18
2022-09-27T01:49:55.301Z,11.77
2022-09-27T01:52:31.388Z,8.93
2022-09-27T01:55:05.558Z,16.10
2022-09-27T01:57:54.681Z,15.82
2022-09-27T02:00:26.239Z,16.15
2022-09-27T02:03:01.896Z,22.70
2022-09-27T02:05:41.505Z,15.68
2022-09-27T02:08:40.127Z,9.20
2022-09-27T02:11:16.347Z,20.35
2022-09-27T02:13:55.506Z,12.40
2022-09-27T02:16:51.959Z,12.38
2022-09-27T02:19:35.280Z,12.20
2022-09-27T02:22:14.336Z,7.65
2022-09-27T02:24:46.267Z,16.05
2022-09-27T02:27:18.146Z,13.10
2022-09-27T02:29:52.015Z,9.38
2022-09-27T02:32:20.432Z,11.98
2022-09-27T02:34:51.822Z,11.27
2022-09-27T02:37:19.942Z,8.10
2022-09-27T02:39:48.950Z,10.50
2022-09-27T02:42:17.211Z,8.80
2022-09-27T02:44:45.943Z,6.25
2022-09-27T02:47:55.894Z,7.65
2022-09-27T02:50:45.816Z,17.98
2022-09-27T02:53:41.459Z,4.43
2022-09-27T02:56:40.512Z,9.70
2022-09-27T02:59:35.221Z,15.20
2022-09-27T03:02:34.218Z,5.97
2022-09-27T03:05:25.416Z,7.63
2022-09-27T03:07:54.886Z,7.65
2022-09-27T03:10:25.764Z,8.48
2022-09-27T03:12:54.496Z,9.93
2022-09-27T03:15:22.656Z,7.13
2022-09-27T03:18:02.919Z,4.22
2022-09-27T03:21:00.194Z,6.03
2022-09-27T03:23:30.351Z,8.88
2022-09-27T03:25:59.656Z,7.50
2022-09-27T03:28:29.714Z,6.93
2022-09-27T03:30:58.291Z,12.00
2022-09-27T03:33:55.777Z,15.00
2022-09-27T03:36:24.328Z,10.80
2022-09-27T03:38:53.950Z,7.78
2022-09-27T03:41:22.217Z,14.35
2022-09-27T03:43:50.370Z,8.48
2022-09-27T03:46:18.535Z,6.95
2022-09-27T03:48:46.694Z,9.77
2022-09-27T03:51:36.481Z,9.82
2022-09-27T03:54:06.173Z,14.32
2022-09-27T03:56:34.258Z,13.45
2022-09-27T03:59:02.603Z,9.82
2022-09-27T04:01:39.039Z,13.07
2022-09-27T04:04:25.857Z,11.60
2022-09-27T04:06:54.219Z,9.75
2022-09-27T04:09:23.925Z,5.75
2022-09-27T04:11:58.969Z,7.43
2022-09-27T04:14:27.768Z,7.63
2022-09-27T04:17:15.801Z,7.85
2022-09-27T04:20:03.803Z,11.70
2022-09-27T04:22:32.758Z,5.85
2022-09-27T04:25:02.211Z,9.38
2022-09-27T04:27:37.656Z,9.77
2022-09-27T04:30:06.963Z,9.52
2022-09-27T04:32:54.113Z,10.95
2022-09-27T04:35:57.881Z,14.23
2022-09-27T04:38:26.443Z,11.93
2022-09-27T04:40:55.993Z,8.23
2022-09-27T04:43:24.658Z,4.78
2022-09-27T04:45:52.875Z,7.25
2022-09-27T04:48:21.394Z,6.82
2022-09-27T04:50:57.467Z,7.60
2022-09-27T04:53:26.062Z,7.68
2022-09-27T04:55:55.625Z,6.25
2022-09-27T04:58:24.691Z,5.18
2022-09-27T05:00:55.772Z,3.83
2022-09-27T05:03:43.294Z,7.03
2022-09-27T05:06:13.356Z,6.03
2022-09-27T05:08:41.955Z,4.35
2022-09-27T05:11:17.093Z,8.48
2022-09-27T05:14:05.279Z,10.70
2022-09-27T05:16:42.675Z,11.10
2022-09-27T05:19:29.315Z,8.55
2022-09-27T05:22:03.386Z,10.45
2022-09-27T05:24:32.199Z,6.00
2022-09-27T05:27:02.954Z,12.48
2022-09-27T05:29:31.440Z,10.63
2022-09-27T05:32:16.510Z,10.75
2022-09-27T05:34:46.745Z,11.10
2022-09-27T05:37:15.123Z,9.10
2022-09-27T05:39:43.785Z,6.97
2022-09-27T05:42:15.395Z,10.13
2022-09-27T05:44:48.518Z,12.02
2022-09-27T05:47:17.396Z,11.48
2022-09-27T05:49:45.520Z,12.55
2022-09-27T05:52:16.195Z,10.50
2022-09-27T05:54:46.059Z,11.90
2022-09-27T05:57:17.314Z,9.52
2022-09-27T05:59:48.848Z,6.28
2022-09-27T06:02:22.959Z,6.97
2022-09-27T06:05:10.092Z,13.65
2022-09-27T06:07:41.648Z,12.02
2022-09-27T06:10:21.372Z,11.80
2022-09-27T06:12:51.091Z,8.30
2022-09-27T06:15:42.834Z,6.75
2022-09-27T06:18:12.861Z,13.02
2022-09-27T06:20:43.029Z,10.55
2022-09-27T06:23:12.894Z,8.80
2022-09-27T06:25:41.965Z,7.82
2022-09-27T06:28:23.741Z,8.98
2022-09-27T06:30:56.094Z,8.30
2022-09-27T06:33:37.017Z,8.23
2022-09-27T06:36:07.136Z,13.13
2022-09-27T06:38:37.153Z,9.10
2022-09-27T06:41:18.927Z,7.72
2022-09-27T06:44:07.036Z,7.22
2022-09-27T06:46:55.104Z,11.73
2022-09-27T06:49:43.494Z,10.73
2022-09-27T06:52:11.745Z,4.75
2022-09-27T06:54:39.858Z,8.48
2022-09-27T06:57:08.021Z,8.85
2022-09-27T06:59:56.029Z,14.25
2022-09-27T07:02:42.880Z,12.35
2022-09-27T07:05:25.867Z,4.47
2022-09-27T07:08:14.266Z,6.90
2022-09-27T07:10:43.149Z,6.70
2022-09-27T07:13:12.517Z,8.20
2022-09-27T07:15:42.971Z,10.38
2022-09-27T07:18:14.742Z,6.28
2022-09-27T07:20:43.544Z,10.05
2022-09-27T07:23:12.195Z,9.88
2022-09-27T07:25:40.311Z,10.30
2022-09-27T07:28:17.336Z,12.23
2022-09-27T07:30:55.263Z,9.77
2022-09-27T07:33:23.931Z,7.50
2022-09-27T07:35:52.059Z,9.13
2022-09-27T07:38:20.339Z,10.68
2022-09-27T07:40:48.602Z,5.93
2022-09-27T07:43:17.043Z,10.23
2022-09-27T07:45:45.311Z,11.60
2022-09-27T07:48:33.672Z,17.02
2022-09-27T07:51:27.846Z,17.92
2022-09-27T07:54:08.730Z,10.93
2022-09-27T07:57:05.219Z,9.48
2022-09-27T07:59:36.871Z,6.18
2022-09-27T08:02:07.596Z,14.25
2022-09-27T08:04:37.197Z,6.22
2022-09-27T08:07:05.406Z,6.28
2022-09-27T08:09:33.631Z,5.50
2022-09-27T08:12:04.441Z,8.55
2022-09-27T08:14:33.596Z,4.95
2022-09-27T08:17:03.851Z,4.90
2022-09-27T08:19:45.911Z,6.15
2022-09-27T08:22:41.674Z,3.63
2022-09-27T08:25:24.535Z,5.55
2022-09-27T08:28:15.743Z,5.72
2022-09-27T08:30:50.018Z,11.18
2022-09-27T08:33:18.737Z,5.88
2022-09-27T08:35:48.275Z,3.97
2022-09-27T08:38:16.399Z,5.43
2022-09-27T08:40:54.773Z,4.65
2022-09-27T08:43:36.681Z,6.53
2022-09-27T08:46:21.814Z,5.43
2022-09-27T08:48:53.867Z,8.25
2022-09-27T08:51:30.387Z,7.25
2022-09-27T08:54:03.454Z,8.68
2022-09-27T08:56:33.294Z,7.00
2022-09-27T08:59:07.478Z,6.28
2022-09-27T09:01:37.374Z,8.35
2022-09-27T09:04:20.510Z,6.13
2022-09-27T09:06:59.993Z,5.38
2022-09-27T09:09:36.008Z,3.25
2022-09-27T09:12:43.579Z,7.78
2022-09-27T09:15:27.749Z,6.13
2022-09-27T09:18:27.770Z,5.95
2022-09-27T09:21:21.431Z,4.75
2022-09-27T09:24:10.631Z,2.97
2022-09-27T09:26:44.391Z,6.40
2022-09-27T09:29:26.171Z,6.70
2022-09-27T09:32:03.486Z,6.45
2022-09-27T09:34:38.035Z,5.10
2022-09-27T09:37:13.800Z,6.75
2022-09-27T09:39:48.530Z,8.05
2022-09-27T09:42:24.523Z,5.95
2022-09-27T09:44:58.129Z,4.50
2022-09-27T09:47:35.726Z,8.55
2022-09-27T09:50:07.306Z,8.50
2022-09-27T09:52:41.899Z,5.45
2022-09-27T09:55:20.599Z,8.57
2022-09-27T09:58:03.724Z,8.20
2022-09-27T10:00:42.052Z,6.07
2022-09-27T10:03:11.091Z,10.75
2022-09-27T10:05:39.334Z,6.60
2022-09-27T10:08:18.083Z,6.35
2022-09-27T10:10:49.519Z,9.13
2022-09-27T10:13:37.161Z,7.20
2022-09-27T10:16:10.136Z,8.35
2022-09-27T10:18:44.057Z,5.90
2022-09-27T10:21:21.334Z,5.72
2022-09-27T10:24:16.593Z,5.72
2022-09-27T10:27:06.123Z,3.38
2022-09-27T10:29:39.042Z,5.68
2022-09-27T10:32:25.408Z,6.18
2022-09-27T10:35:35.206Z,8.75
2022-09-27T10:38:24.917Z,3.70
2022-09-27T10:40:59.909Z,3.80
2022-09-27T10:43:33.490Z,6.78
2022-09-27T10:46:27.633Z,2.28
2022-09-27T10:49:14.974Z,2.72
2022-09-27T10:51:44.597Z,2.58
2022-09-27T10:54:22.735Z,1.48
2022-09-27T10:57:00.119Z,4.28
2022-09-27T10:59:31.866Z,4.03
2022-09-27T11:02:00.895Z,4.47
2022-09-27T11:04:41.202Z,3.13
2022-09-27T11:07:15.534Z,2.97
2022-09-27T11:09:50.906Z,5.45
2022-09-27T11:12:20.882Z,4.88
2022-09-27T11:14:59.054Z,7.38
2022-09-27T11:17:32.524Z,5.88
2022-09-27T11:20:19.235Z,3.72
2022-09-27T11:23:23.418Z,3.83
2022-09-27T11:26:07.747Z,3.92
2022-09-27T11:28:48.701Z,4.15
2022-09-27T11:31:42.992Z,2.67
2022-09-27T11:34:31.732Z,1.55
2022-09-27T11:37:13.547Z,5.63
2022-09-27T11:40:01.271Z,4.70
2022-09-27T11:42:59.276Z,2.70
2022-09-27T11:48:57.821Z,2.58
2022-09-27T11:51:41.924Z,6.63
2022-09-27T11:54:26.926Z,4.65
2022-09-27T11:57:04.049Z,2.05
2022-09-27T11:59:54.227Z,1.70
2022-09-27T12:02:55.486Z,1.40
2022-09-27T12:05:37.674Z,1.33
2022-09-27T12:08:20.063Z,3.05
2022-09-27T12:10:52.739Z,2.90
2022-09-27T12:13:30.710Z,7.00
2022-09-27T12:15:59.754Z,2.72
2022-09-27T12:18:34.659Z,1.33
2022-09-27T12:21:10.734Z,1.35
2022-09-27T12:23:43.796Z,2.17
2022-09-27T12:26:38.443Z,2.28
2022-09-27T12:29:14.152Z,1.65
2022-09-27T12:31:45.650Z,3.28
2022-09-27T12:37:17.101Z,1.20
2022-09-27T12:39:51.817Z,3.15
2022-09-27T12:42:38.210Z,0.90
2022-09-27T12:45:14.742Z,1.45
2022-09-27T12:48:04.534Z,0.43
2022-09-27T12:50:38.125Z,1.48
2022-09-27T12:53:15.128Z,5.30
2022-09-27T12:56:10.672Z,2.72
2022-09-27T12:58:53.538Z,1.60
2022-09-27T13:01:37.939Z,1.08
2022-09-27T13:04:20.805Z,0.82
2022-09-27T13:07:13.718Z,0.68
2022-09-27T13:10:06.571Z,2.08
2022-09-27T13:12:37.342Z,3.38
2022-09-27T13:15:15.112Z,4.22
2022-09-27T13:17:50.996Z,8.25
2022-09-27T13:20:49.019Z,3.80
2022-09-27T13:24:01.335Z,2.63
2022-09-27T13:26:51.085Z,2.40
2022-09-27T13:29:42.163Z,9.73
2022-09-27T13:32:22.595Z,1.35
2022-09-27T13:35:18.962Z,5.90
2022-09-27T13:37:55.512Z,2.78
2022-09-27T13:40:51.395Z,3.08
2022-09-27T13:43:51.279Z,5.22
2022-09-27T13:46:54.096Z,3.65
2022-09-27T13:49:30.321Z,1.88
2022-09-27T13:52:23.041Z,2.47
2022-09-27T13:55:32.002Z,5.05
2022-09-27T13:58:03.852Z,4.20
2022-09-27T14:00:40.991Z,1.23
2022-09-27T14:03:24.787Z,2.67
2022-09-27T14:05:56.551Z,2.88
2022-09-27T14:08:30.205Z,3.45
2022-09-27T14:10:59.870Z,1.55
2022-09-27T14:13:32.533Z,0.55
2022-09-27T14:16:08.818Z,5.60
2022-09-27T14:18:45.052Z,3.75
2022-09-27T14:21:22.143Z,3.85
2022-09-27T14:24:33.737Z,2.15
2022-09-27T14:27:12.964Z,3.67
2022-09-27T14:29:46.747Z,2.58
2022-09-27T14:32:20.111Z,0.80
2022-09-27T14:35:28.596Z,3.78
2022-09-27T14:37:56.845Z,2.30
2022-09-27T14:40:25.285Z,5.88
2022-09-27T14:42:57.392Z,3.83
2022-09-27T14:45:32.638Z,2.13
2022-09-27T14:48:00.866Z,1.58
2022-09-27T14:50:30.686Z,3.53
2022-09-27T14:53:01.681Z,2.65
2022-09-27T14:55:34.905Z,2.50
2022-09-27T14:58:04.701Z,1.38
2022-09-27T15:00:37.403Z,1.50
2022-09-27T15:03:09.919Z,3.33
2022-09-27T15:05:42.907Z,3.85
2022-09-27T15:08:13.101Z,2.92
2022-09-27T15:10:41.396Z,4.57
2022-09-27T15:13:13.827Z,2.67
2022-09-27T15:15:43.715Z,1.73
2022-09-27T15:18:34.761Z,4.28
2022-09-27T15:21:03.395Z,5.75
2022-09-27T15:23:36.385Z,1.45
2022-09-27T15:26:09.611Z,3.20
2022-09-27T15:28:39.886Z,2.58
2022-09-27T15:31:09.679Z,1.92
2022-09-27T15:33:38.177Z,2.53
2022-09-27T15:36:08.150Z,2.83
2022-09-27T15:38:38.514Z,4.40
2022-09-27T15:41:16.211Z,8.80
2022-09-27T15:43:46.685Z,15.52
2022-09-27T15:46:39.083Z,9.23
2022-09-27T15:49:30.910Z,10.32
2022-09-27T15:52:00.827Z,5.18
2022-09-27T15:54:30.762Z,3.50
2022-09-27T15:57:04.535Z,5.38
2022-09-27T15:59:35.111Z,8.25
2022-09-27T16:02:08.501Z,6.90
2022-09-27T16:04:36.629Z,5.90
2022-09-27T16:07:09.014Z,5.63
2022-09-27T16:09:37.162Z,6.35
2022-09-27T16:12:05.576Z,2.53
2022-09-27T16:14:33.610Z,6.03
2022-09-27T16:17:01.699Z,4.40
2022-09-27T16:19:31.102Z,2.55
2022-09-27T16:22:03.385Z,6.20
2022-09-27T16:24:32.151Z,6.45
2022-09-27T16:27:00.484Z,4.75
2022-09-27T16:29:28.574Z,4.07
2022-09-27T16:31:57.121Z,3.17
2022-09-27T16:34:25.187Z,4.80
2022-09-27T16:36:54.695Z,7.10
2022-09-27T16:39:22.723Z,6.15
2022-09-27T16:41:53.235Z,4.28
2022-09-27T16:44:21.265Z,3.78
2022-09-27T16:46:49.771Z,7.20
2022-09-27T16:49:35.487Z,5.90
2022-09-27T16:52:04.911Z,4.20
2022-09-27T16:54:32.951Z,6.28
2022-09-27T16:57:01.215Z,2.97
2022-09-27T16:59:29.236Z,6.90
2022-09-27T17:01:57.886Z,4.15
2022-09-27T17:04:27.489Z,5.60
2022-09-27T17:06:56.321Z,2.67
2022-09-27T17:09:26.236Z,7.40
2022-09-27T17:11:55.436Z,7.80
2022-09-27T17:14:27.285Z,5.32
2022-09-27T17:16:55.443Z,5.05
2022-09-27T17:19:23.680Z,4.47
2022-09-27T17:21:52.151Z,6.75
2022-09-27T17:24:20.441Z,5.57
2022-09-27T17:26:50.421Z,3.75
2022-09-27T17:29:18.812Z,7.78
2022-09-27T17:31:47.352Z,7.57
2022-09-27T17:34:15.958Z,12.48
2022-09-27T17:36:48.383Z,21.20
2022-09-27T17:39:18.566Z,18.13
2022-09-27T17:41:46.839Z,10.68
2022-09-27T17:44:18.271Z,10.98
2022-09-27T17:46:47.889Z,9.50
2022-09-27T17:49:33.749Z,8.57
2022-09-27T17:52:02.233Z,11.70
2022-09-27T17:54:30.527Z,14.98
2022-09-27T17:56:58.903Z,11.90
2022-09-27T17:59:28.606Z,9.90
2022-09-27T18:01:56.878Z,8.52
2022-09-27T18:04:25.511Z,13.93
2022-09-27T18:06:54.426Z,19.67
2022-09-27T18:09:22.839Z,16.92
2022-09-27T18:11:51.189Z,13.27
2022-09-27T18:14:21.157Z,15.25
2022-09-27T18:16:50.811Z,12.40
2022-09-27T18:19:19.237Z,11.30
2022-09-27T18:21:47.525Z,9.85
2022-09-27T18:24:16.143Z,15.60
2022-09-27T18:26:48.540Z,16.17
2022-09-27T18:29:19.458Z,17.00
2022-09-27T18:31:49.243Z,13.88
2022-09-27T18:34:21.455Z,21.10
2022-09-27T18:36:49.751Z,16.08
2022-09-27T18:39:19.678Z,9.38
2022-09-27T18:41:49.339Z,12.95
2022-09-27T18:44:18.618Z,7.35
2022-09-27T18:46:47.094Z,9.93
2022-09-27T18:49:16.505Z,10.88
2022-09-27T18:51:47.188Z,11.15
2022-09-27T18:54:18.411Z,9.32
2022-09-27T18:56:47.727Z,11.52
2022-09-27T18:59:31.511Z,7.93
2022-09-27T19:01:59.713Z,9.93
2022-09-27T19:04:28.031Z,8.63
2022-09-27T19:06:58.270Z,13.20
2022-09-27T19:09:27.369Z,10.52
2022-09-27T19:11:55.510Z,12.90
2022-09-27T19:14:24.553Z,13.80
2022-09-27T19:16:52.669Z,18.73
2022-09-27T19:19:24.182Z,13.10
2022-09-27T19:21:52.214Z,18.02
2022-09-27T19:24:22.018Z,14.00
2022-09-27T19:26:53.523Z,20.67
2022-09-27T19:29:21.585Z,18.10
2022-09-27T19:31:49.721Z,20.23
2022-09-27T19:34:18.096Z,15.57
2022-09-27T19:36:46.318Z,19.77
2022-09-27T19:39:14.456Z,18.67
2022-09-27T19:41:44.412Z,20.20
2022-09-27T19:44:13.259Z,23.35
2022-09-27T19:47:15.124Z,27.50
2022-09-27T19:49:52.346Z,30.35
2022-09-27T19:52:22.807Z,20.63
2022-09-27T19:54:50.930Z,19.52
2022-09-27T19:57:20.320Z,19.65
2022-09-27T19:59:48.415Z,16.73
2022-09-27T20:02:16.647Z,15.43
2022-09-27T20:04:49.643Z,10.70
2022-09-27T20:07:45.909Z,11.30
2022-09-27T20:10:24.865Z,7.97
2022-09-27T20:19:55.501Z,10.18
2022-09-27T20:22:26.702Z,6.72
2022-09-27T20:24:55.016Z,5.60
2022-09-27T20:27:33.401Z,9.15
2022-09-27T20:30:09.936Z,8.00
2022-09-27T20:33:06.110Z,6.85
2022-09-27T20:36:17.012Z,9.32
2022-09-27T20:39:24.655Z,8.18
2022-09-27T20:42:56.710Z,11.73
2022-09-27T20:45:43.997Z,6.55
2022-09-27T20:49:05.208Z,7.65
2022-09-27T20:52:06.149Z,5.88
2022-09-27T20:55:07.353Z,5.75
2022-09-27T20:57:56.487Z,10.60
2022-09-27T21:00:55.363Z,9.57
2022-09-27T21:03:49.670Z,6.60
2022-09-27T21:06:31.125Z,9.43
2022-09-27T21:09:38.458Z,6.82
2022-09-27T21:12:43.927Z,7.60
2022-09-27T21:19:32.689Z,6.85
2022-09-27T21:22:56.299Z,10.13
2022-09-27T21:31:22.513Z,7.95
2022-09-27T21:37:37.798Z,6.97
2022-09-27T21:41:12.718Z,8.48
2022-09-27T21:44:47.755Z,8.20
2022-09-27T21:48:28.287Z,10.65
2022-09-27T21:51:55.374Z,7.72
2022-09-27T21:55:37.504Z,6.85
2022-09-27T23:23:03.749Z,10.77
2022-09-27T23:25:32.287Z,12.68
2022-09-27T23:28:00.783Z,11.73
2022-09-27T23:30:30.271Z,12.70
2022-09-27T23:32:58.707Z,10.93
2022-09-27T23:35:31.588Z,10.45
2022-09-27T23:38:23.696Z,11.35
2022-09-27T23:41:26.111Z,14.02
2022-09-27T23:48:03.826Z,14.10
